Terminal Aerodrome Forecast
Issued by NWS

Home | Current Version | Previous Version | Graphics & Text | Print | Product List | Glossary On
Versions: 1 2 3 4 5 6 7 8 9 10 11 12 13 14 15 16 17 18
732
FTUS43 KIWX 291013 AAB
TAFSBN
TAF AMD
KSBN 291013Z 2910/3006 04005KT P6SM SCT250
     FM291700 08014KT P6SM BKN200
     FM300300 09014G24KT P6SM BKN100=

USA.gov is the U.S. government's official web portal to all federal, state and local government web resources and services.